Time;durP1;ratioP1;P1;durP2;ratioP2;P2;SDS_P1;SDS_P2;PMS_P1;PMS_P2;Temp;Humidity;BMP_temperature;BMP_pressure;BME280_temperature;BME280_humidity;BME280_pressure;Samples;Min_cycle;Max_cycle;Signal;HPM_P1;HPM_P2
2021/06/07 00:01:46;;;;;;;26.20;18.85;;;16.80;86.60;;;;;;5058379;28;20032;-80
2021/06/07 00:04:13;;;;;;;21.48;17.77;;;16.80;87.30;;;;;;5023307;28;20697;-80
2021/06/07 00:06:39;;;;;;;26.02;18.67;;;16.70;86.90;;;;;;5023643;28;20572;-79
2021/06/07 00:09:06;;;;;;;24.85;19.45;;;16.80;87.40;;;;;;5009678;28;20036;-79
2021/06/07 00:11:32;;;;;;;21.05;18.23;;;16.70;86.90;;;;;;5008761;28;20112;-79
2021/06/07 00:13:57;;;;;;;22.83;19.05;;;16.70;87.50;;;;;;5024537;28;20040;-80
2021/06/07 00:16:23;;;;;;;23.80;17.85;;;16.60;88.10;;;;;;5009461;28;20067;-81
2021/06/07 00:18:49;;;;;;;24.08;18.75;;;16.60;87.60;;;;;;5025892;28;20078;-81
2021/06/07 00:21:20;;;;;;;23.70;17.67;;;16.60;88.20;;;;;;5024314;28;20074;-81
2021/06/07 00:23:46;;;;;;;24.17;18.77;;;16.50;89.10;;;;;;5041092;28;20036;-81
2021/06/07 00:26:12;;;;;;;20.52;17.75;;;16.50;88.30;;;;;;5059861;28;20078;-81
2021/06/07 00:28:37;;;;;;;24.48;19.02;;;16.40;88.50;;;;;;5023749;28;20029;-81
2021/06/07 00:31:04;;;;;;;22.70;18.23;;;16.30;88.80;;;;;;5007621;28;20028;-81
2021/06/07 00:33:30;;;;;;;23.95;18.98;;;16.20;89.20;;;;;;5029161;28;20477;-80
2021/06/07 00:35:56;;;;;;;26.35;20.33;;;16.10;89.60;;;;;;5022436;28;20047;-81
2021/06/07 00:38:21;;;;;;;23.85;19.92;;;16.10;89.90;;;;;;5007705;28;20032;-81
2021/06/07 00:40:47;;;;;;;25.00;19.98;;;16.00;90.00;;;;;;5026333;28;20052;-81
2021/06/07 00:43:13;;;;;;;24.40;19.92;;;15.90;90.10;;;;;;5026797;28;20835;-80
2021/06/07 00:45:40;;;;;;;24.05;19.25;;;15.90;90.40;;;;;;5024962;28;20033;-81
2021/06/07 00:48:07;;;;;;;25.20;21.67;;;15.80;90.70;;;;;;5029384;28;20442;-78
2021/06/07 00:50:51;;;;;;;25.20;20.50;;;15.60;90.80;;;;;;5023015;28;20029;-80
2021/06/07 00:53:18;;;;;;;28.38;21.52;;;15.60;91.10;;;;;;5031076;28;20035;-80
2021/06/07 00:55:54;;;;;;;25.13;21.63;;;15.50;91.40;;;;;;5001903;28;20091;-80
2021/06/07 00:58:24;;;;;;;29.88;22.77;;;15.50;91.50;;;;;;5041383;28;20090;-79
2021/06/07 01:00:50;;;;;;;26.83;22.67;;;15.40;91.60;;;;;;5042059;28;20028;-80
2021/06/07 01:03:16;;;;;;;32.53;22.85;;;15.30;91.70;;;;;;5057945;28;20025;-80
2021/06/07 01:05:42;;;;;;;30.13;23.52;;;15.30;91.80;;;;;;5025824;28;20615;-80
2021/06/07 01:08:08;;;;;;;30.90;23.25;;;15.30;92.00;;;;;;5021634;28;20032;-79
2021/06/07 01:10:34;;;;;;;27.65;23.48;;;15.30;91.90;;;;;;5022608;28;20029;-79
2021/06/07 01:13:00;;;;;;;27.10;22.90;;;15.30;92.00;;;;;;5056273;28;20060;-80
2021/06/07 01:15:25;;;;;;;28.45;23.20;;;15.40;91.50;;;;;;5040558;28;20037;-80
2021/06/07 01:17:51;;;;;;;28.33;22.60;;;15.50;91.50;;;;;;5024393;28;20049;-80
2021/06/07 01:20:17;;;;;;;26.60;22.73;;;15.10;91.20;;;;;;5024707;28;20032;-80
2021/06/07 01:22:44;;;;;;;33.90;23.38;;;15.40;91.70;;;;;;5000770;28;20036;-80
2021/06/07 01:25:19;;;;;;;30.08;24.73;;;15.40;91.60;;;;;;5008760;28;20095;-80
2021/06/07 01:27:44;;;;;;;30.55;23.70;;;15.30;91.90;;;;;;5028597;28;20033;-79
2021/06/07 01:30:13;;;;;;;27.42;23.55;;;15.30;91.90;;;;;;5010959;28;20036;-80
2021/06/07 01:32:39;;;;;;;32.25;24.92;;;15.30;91.50;;;;;;5001876;28;20461;-80
2021/06/07 01:35:05;;;;;;;29.30;25.35;;;15.40;91.30;;;;;;5029150;28;20040;-80
2021/06/07 01:37:31;;;;;;;30.77;24.70;;;15.40;91.40;;;;;;5045584;28;20017;-80
2021/06/07 01:39:57;;;;;;;31.20;25.15;;;15.40;91.20;;;;;;5014494;28;20021;-80
2021/06/07 01:42:22;;;;;;;28.48;24.02;;;15.40;91.40;;;;;;5026138;28;20154;-80
2021/06/07 01:44:48;;;;;;;30.58;24.15;;;15.30;91.50;;;;;;5028448;28;20032;-80
2021/06/07 01:47:14;;;;;;;29.90;23.70;;;15.30;91.30;;;;;;5062435;28;20017;-80
2021/06/07 01:49:39;;;;;;;31.63;26.17;;;15.30;91.40;;;;;;5024504;28;20421;-79
2021/06/07 01:52:05;;;;;;;33.67;24.65;;;15.20;91.60;;;;;;5041514;28;20036;-80
2021/06/07 01:54:31;;;;;;;33.03;24.60;;;15.20;91.60;;;;;;5026234;28;20020;-80
2021/06/07 01:56:56;;;;;;;33.63;24.77;;;15.10;91.50;;;;;;5028529;28;20032;-80
2021/06/07 01:59:22;;;;;;;28.98;24.48;;;15.00;91.70;;;;;;5009525;28;20029;-80
2021/06/07 02:01:47;;;;;;;30.17;25.52;;;14.90;91.90;;;;;;5029350;28;20021;-80
2021/06/07 02:04:13;;;;;;;31.75;25.77;;;14.90;92.00;;;;;;5048010;28;20029;-80
2021/06/07 02:06:39;;;;;;;35.08;26.75;;;14.80;92.10;;;;;;5002655;28;20014;-80
2021/06/07 02:09:06;;;;;;;32.63;25.95;;;14.70;92.40;;;;;;5008168;28;20596;-80
2021/06/07 02:11:31;;;;;;;33.13;25.38;;;14.60;92.20;;;;;;5013521;28;20067;-80
2021/06/07 02:14:03;;;;;;;31.60;26.00;;;14.60;92.40;;;;;;5025903;28;20104;-80
2021/06/07 02:16:36;;;;;;;35.30;26.80;;;14.50;92.50;;;;;;5011709;28;20025;-80
2021/06/07 02:19:05;;;;;;;33.85;25.95;;;14.40;92.70;;;;;;5010243;28;20025;-80
2021/06/07 02:21:31;;;;;;;31.80;25.42;;;14.40;92.80;;;;;;5043188;28;20025;-80
2021/06/07 02:23:56;;;;;;;35.55;26.42;;;14.50;92.80;;;;;;5025260;28;20021;-80
2021/06/07 02:26:22;;;;;;;36.60;26.83;;;14.50;92.90;;;;;;5026511;28;20734;-79
2021/06/07 02:29:02;;;;;;;36.40;28.65;;;14.50;93.10;;;;;;5028588;28;20028;-80
2021/06/07 02:31:28;;;;;;;34.75;26.17;;;14.40;93.00;;;;;;5026020;28;20697;-80
2021/06/07 02:33:55;;;;;;;33.90;27.00;;;14.50;93.00;;;;;;5030453;28;20037;-80
2021/06/07 02:36:21;;;;;;;33.70;27.25;;;14.40;92.80;;;;;;5025776;28;20036;-79
2021/06/07 02:38:47;;;;;;;34.22;25.63;;;14.40;92.80;;;;;;5024679;28;20059;-80
2021/06/07 02:41:13;;;;;;;37.30;27.42;;;14.40;92.80;;;;;;5024521;28;20057;-79
2021/06/07 02:43:38;;;;;;;35.80;28.00;;;14.40;92.90;;;;;;5043206;28;20029;-80
2021/06/07 02:46:05;;;;;;;34.05;27.90;;;14.40;93.00;;;;;;5058705;28;20025;-80
2021/06/07 02:48:31;;;;;;;38.45;29.27;;;14.40;93.00;;;;;;5011812;28;20029;-80
2021/06/07 02:50:56;;;;;;;38.95;29.33;;;14.40;93.10;;;;;;5043563;28;20033;-80
2021/06/07 02:53:22;;;;;;;38.65;30.42;;;14.40;93.00;;;;;;5028052;28;20057;-80
2021/06/07 02:55:52;;;;;;;40.72;30.98;;;14.40;93.10;;;;;;5028580;28;20037;-80
2021/06/07 02:58:19;;;;;;;41.03;29.85;;;14.50;93.10;;;;;;5027919;28;20060;-80
2021/06/07 03:00:50;;;;;;;41.08;29.05;;;14.50;92.70;;;;;;5025763;28;20029;-80
2021/06/07 03:03:15;;;;;;;37.45;29.10;;;14.50;92.80;;;;;;5025977;28;20474;-80
2021/06/07 03:05:42;;;;;;;37.20;27.08;;;14.50;92.70;;;;;;5028496;28;20009;-80
2021/06/07 03:08:09;;;;;;;39.70;30.73;;;14.60;92.80;;;;;;5026665;28;20087;-80
2021/06/07 03:10:35;;;;;;;42.72;32.63;;;14.60;93.00;;;;;;5028562;28;20028;-80
2021/06/07 03:13:00;;;;;;;45.33;31.25;;;14.70;93.10;;;;;;5013119;28;20107;-80
2021/06/07 03:15:27;;;;;;;49.33;32.67;;;14.70;93.10;;;;;;5027185;28;20116;-80
2021/06/07 03:17:53;;;;;;;43.08;30.55;;;14.80;93.20;;;;;;5011135;28;20036;-82
2021/06/07 03:20:22;;;;;;;43.85;31.45;;;14.80;92.90;;;;;;5012543;28;20032;-82
2021/06/07 03:22:48;;;;;;;49.55;32.75;;;15.00;93.00;;;;;;5028754;28;20465;-81
2021/06/07 03:25:14;;;;;;;44.75;33.53;;;15.00;93.00;;;;;;5029948;28;20108;-81
2021/06/07 03:27:40;;;;;;;48.20;33.70;;;15.10;92.70;;;;;;5015320;28;20063;-82
2021/06/07 03:30:06;;;;;;;43.58;31.98;;;15.20;92.50;;;;;;5007202;28;20031;-81
2021/06/07 03:32:32;;;;;;;51.70;35.45;;;15.20;92.60;;;;;;5009301;28;20657;-81
2021/06/07 03:34:57;;;;;;;45.47;32.90;;;15.20;92.20;;;;;;5044313;28;20029;-82
2021/06/07 03:37:23;;;;;;;47.65;33.60;;;15.20;92.40;;;;;;5026895;28;20025;-82
2021/06/07 03:39:49;;;;;;;48.13;34.72;;;15.30;92.60;;;;;;5008664;28;20067;-81
2021/06/07 03:42:14;;;;;;;56.63;35.03;;;15.30;92.80;;;;;;5028950;28;20517;-81
2021/06/07 03:44:40;;;;;;;45.88;32.88;;;15.30;92.60;;;;;;5015113;28;20028;-82
2021/06/07 03:47:06;;;;;;;51.30;34.92;;;15.40;92.40;;;;;;5028447;28;20028;-82
2021/06/07 03:49:31;;;;;;;48.05;34.10;;;15.40;92.20;;;;;;5047881;28;20040;-81
2021/06/07 03:51:57;;;;;;;46.75;34.20;;;15.50;92.10;;;;;;5012556;28;20139;-81
2021/06/07 03:54:22;;;;;;;51.50;35.15;;;15.50;91.80;;;;;;5010040;28;20971;-81
2021/06/07 03:56:48;;;;;;;45.63;32.67;;;15.50;92.00;;;;;;5016061;28;20143;-82
2021/06/07 03:59:14;;;;;;;45.30;31.55;;;15.60;91.30;;;;;;5026734;28;20108;-83
2021/06/07 04:01:40;;;;;;;46.85;33.13;;;15.70;91.00;;;;;;5046201;28;20680;-82
2021/06/07 04:04:06;;;;;;;45.65;32.50;;;15.80;90.80;;;;;;5012749;28;20263;-80
2021/06/07 04:06:31;;;;;;;41.72;30.88;;;15.80;90.90;;;;;;5000074;28;20013;-79
2021/06/07 04:08:59;;;;;;;35.70;29.40;;;15.80;90.70;;;;;;5008476;28;20033;-80
2021/06/07 04:11:25;;;;;;;38.42;29.70;;;15.80;90.40;;;;;;5013010;28;20448;-77
2021/06/07 04:13:50;;;;;;;40.28;28.27;;;15.90;90.50;;;;;;5024724;28;20025;-77
2021/06/07 04:16:16;;;;;;;36.72;28.08;;;15.90;89.80;;;;;;5025977;28;20040;-79
2021/06/07 04:18:42;;;;;;;33.90;28.02;;;15.90;89.30;;;;;;5027667;28;20466;-79
2021/06/07 04:21:07;;;;;;;32.58;27.77;;;16.00;87.80;;;;;;5004579;28;20027;-79
2021/06/07 04:23:33;;;;;;;36.25;27.38;;;16.10;87.80;;;;;;5009381;28;20032;-79
2021/06/07 04:25:59;;;;;;;34.30;27.40;;;16.10;86.70;;;;;;5013289;28;20052;-79
2021/06/07 04:28:24;;;;;;;35.50;27.10;;;16.10;87.40;;;;;;5025782;28;20029;-80
2021/06/07 04:30:50;;;;;;;36.22;27.38;;;16.10;88.00;;;;;;5026571;28;20933;-79
2021/06/07 04:33:16;;;;;;;39.75;28.23;;;16.10;88.80;;;;;;5062927;28;20103;-79
2021/06/07 04:35:41;;;;;;;37.83;28.83;;;16.10;88.20;;;;;;5044843;28;20028;-78
2021/06/07 04:38:07;;;;;;;38.25;28.60;;;16.20;87.90;;;;;;5011120;28;20884;-80
2021/06/07 04:40:35;;;;;;;38.83;30.58;;;16.20;86.70;;;;;;5059566;28;20013;-80
2021/06/07 04:43:02;;;;;;;43.15;31.83;;;16.20;87.20;;;;;;5044025;28;20090;-80
2021/06/07 04:45:28;;;;;;;47.83;31.45;;;16.20;86.50;;;;;;5024801;28;20811;-80
2021/06/07 04:47:53;;;;;;;42.78;30.65;;;16.30;85.70;;;;;;5059723;28;20037;-79
2021/06/07 04:50:20;;;;;;;42.67;31.60;;;16.30;86.20;;;;;;5024957;28;20112;-80
2021/06/07 04:53:01;;;;;;;46.67;33.55;;;16.40;88.60;;;;;;5025063;28;20029;-80
2021/06/07 04:55:41;;;;;;;45.17;34.25;;;16.40;85.60;;;;;;5025178;28;20532;-80
2021/06/07 04:58:09;;;;;;;45.20;35.10;;;16.40;85.60;;;;;;5043339;28;20033;-80
2021/06/07 05:00:35;;;;;;;49.83;35.75;;;16.40;85.40;;;;;;5046421;28;21878;-80
2021/06/07 05:03:01;;;;;;;45.95;34.25;;;16.50;85.10;;;;;;5031555;28;20025;-79
2021/06/07 05:05:26;;;;;;;48.63;36.47;;;16.50;85.40;;;;;;5046136;28;20032;-80
2021/06/07 05:07:52;;;;;;;57.50;36.83;;;16.60;84.70;;;;;;5027224;28;20036;-80
2021/06/07 05:10:18;;;;;;;53.45;37.90;;;16.60;84.20;;;;;;5026111;28;20036;-79
2021/06/07 05:12:44;;;;;;;54.35;37.42;;;16.70;84.00;;;;;;4985320;28;20044;-80
2021/06/07 05:15:10;;;;;;;54.22;37.08;;;16.80;84.30;;;;;;5020683;28;20022;-80
2021/06/07 05:17:36;;;;;;;48.53;35.97;;;16.80;84.00;;;;;;5005611;28;20077;-80
2021/06/07 05:20:04;;;;;;;50.35;36.90;;;16.70;83.50;;;;;;5020364;28;20090;-80
2021/06/07 05:22:30;;;;;;;48.58;35.58;;;16.70;83.70;;;;;;5022685;28;20033;-80
2021/06/07 05:24:56;;;;;;;50.13;35.65;;;16.80;83.00;;;;;;5007252;28;20113;-82
2021/06/07 05:27:21;;;;;;;51.78;36.15;;;16.80;83.50;;;;;;5003653;28;20470;-81
2021/06/07 05:29:47;;;;;;;52.65;36.08;;;16.80;83.90;;;;;;4990813;28;20748;-82
2021/06/07 05:32:12;;;;;;;49.38;35.50;;;16.80;82.50;;;;;;5019421;28;20105;-82
2021/06/07 05:34:38;;;;;;;48.53;33.80;;;16.80;82.80;;;;;;5005609;28;20022;-82
2021/06/07 05:37:04;;;;;;;50.45;32.83;;;16.80;82.20;;;;;;4977755;28;20060;-80
2021/06/07 05:39:31;;;;;;;39.75;29.42;;;16.90;82.30;;;;;;5010251;28;20045;-85
2021/06/07 05:41:57;;;;;;;45.70;31.70;;;16.80;81.70;;;;;;4984071;28;20028;-82
2021/06/07 05:44:23;;;;;;;42.72;29.85;;;16.70;82.50;;;;;;5007532;28;20033;-84
2021/06/07 05:46:50;;;;;;;38.22;27.95;;;16.90;82.10;;;;;;5009390;28;20067;-83
2021/06/07 05:49:16;;;;;;;37.40;28.08;;;16.90;81.30;;;;;;5005252;28;20056;-84
2021/06/07 05:51:43;;;;;;;40.03;27.17;;;16.90;81.90;;;;;;5016906;28;20068;-85
2021/06/07 05:54:09;;;;;;;49.17;30.27;;;16.80;82.10;;;;;;5004428;28;20027;-83
2021/06/07 05:56:37;;;;;;;38.03;25.83;;;16.90;82.30;;;;;;5021794;28;20020;-82
2021/06/07 05:59:04;;;;;;;37.47;27.23;;;17.00;81.60;;;;;;5039422;28;20102;-82
2021/06/07 06:01:34;;;;;;;40.50;27.05;;;16.90;81.80;;;;;;5002876;28;20017;-83
2021/06/07 06:04:00;;;;;;;41.90;27.60;;;16.90;81.20;;;;;;5023714;28;20021;-85
2021/06/07 06:06:25;;;;;;;39.63;28.88;;;16.90;81.50;;;;;;5007949;28;20021;-76
2021/06/07 06:08:52;;;;;;;43.72;28.25;;;16.90;81.80;;;;;;5022227;28;20028;-86
2021/06/07 06:11:21;;;;;;;36.88;27.60;;;16.90;82.10;;;;;;5008594;28;20025;-85
2021/06/07 06:13:48;;;;;;;38.67;26.63;;;17.00;82.70;;;;;;5028258;28;20056;-85
2021/06/07 06:16:15;;;;;;;41.20;28.42;;;17.00;82.80;;;;;;5037141;28;20033;-85
2021/06/07 06:18:41;;;;;;;37.80;28.10;;;17.00;82.10;;;;;;5037359;28;20029;-85
2021/06/07 06:21:07;;;;;;;37.53;27.55;;;17.00;81.70;;;;;;5009730;28;20239;-85
2021/06/07 06:23:33;;;;;;;38.95;26.67;;;16.90;81.70;;;;;;5023386;28;20103;-85
2021/06/07 06:26:01;;;;;;;40.05;26.85;;;17.10;82.30;;;;;;5025635;28;20159;-83
2021/06/07 06:28:28;;;;;;;40.83;28.45;;;17.20;80.90;;;;;;5021778;28;20053;-81
2021/06/07 06:30:54;;;;;;;39.97;29.27;;;17.20;81.50;;;;;;5032457;28;20032;-81
2021/06/07 06:33:20;;;;;;;40.47;29.17;;;17.20;80.80;;;;;;5021589;28;20577;-82
2021/06/07 06:35:47;;;;;;;45.08;30.33;;;17.30;80.00;;;;;;5006757;28;20040;-82
2021/06/07 06:38:12;;;;;;;45.97;30.88;;;17.40;81.00;;;;;;5007434;28;20025;-82
2021/06/07 06:40:47;;;;;;;46.22;31.20;;;17.50;80.00;;;;;;5023315;28;20036;-81
2021/06/07 06:43:22;;;;;;;39.50;30.10;;;17.60;80.60;;;;;;5015070;28;20021;-81
2021/06/07 06:45:56;;;;;;;51.17;31.30;;;17.70;78.60;;;;;;5030491;28;20052;-82
2021/06/07 06:48:34;;;;;;;46.97;31.10;;;17.90;78.10;;;;;;5030532;28;20029;-82
2021/06/07 06:51:00;;;;;;;43.70;30.85;;;17.80;78.00;;;;;;5026969;28;20521;-82
2021/06/07 06:53:26;;;;;;;41.25;30.23;;;17.80;77.90;;;;;;5025811;28;20617;-82
2021/06/07 06:55:52;;;;;;;44.97;31.38;;;17.70;77.90;;;;;;5048981;28;20108;-82
2021/06/07 06:58:18;;;;;;;45.53;31.65;;;17.70;79.50;;;;;;5016680;28;20037;-82
2021/06/07 07:00:44;;;;;;;42.63;32.55;;;17.70;79.80;;;;;;5030564;28;20033;-82
2021/06/07 07:03:15;;;;;;;41.75;31.35;;;17.60;79.90;;;;;;5029158;28;20025;-82
2021/06/07 07:05:40;;;;;;;44.67;32.13;;;17.50;79.00;;;;;;5041828;28;20036;-82
2021/06/07 07:08:06;;;;;;;45.70;31.20;;;17.70;81.10;;;;;;5008385;28;20507;-82
2021/06/07 07:10:33;;;;;;;44.20;31.27;;;17.60;78.70;;;;;;5005156;28;20029;-82
2021/06/07 07:12:59;;;;;;;44.67;31.08;;;17.60;79.40;;;;;;5003074;28;20052;-82
2021/06/07 07:15:25;;;;;;;43.88;30.58;;;17.70;79.70;;;;;;5019687;28;20024;-82
2021/06/07 07:17:50;;;;;;;45.03;32.92;;;18.00;79.00;;;;;;5049720;28;20743;-82
2021/06/07 07:20:16;;;;;;;43.22;32.58;;;17.90;78.60;;;;;;5016687;28;20119;-82
2021/06/07 07:22:43;;;;;;;47.40;33.33;;;18.30;77.10;;;;;;4988471;28;20080;-82
2021/06/07 07:25:09;;;;;;;47.63;33.85;;;18.40;76.10;;;;;;5005256;28;20021;-81
2021/06/07 07:27:37;;;;;;;41.88;32.75;;;18.40;77.20;;;;;;5006648;28;20037;-81
2021/06/07 07:30:09;;;;;;;51.22;33.75;;;18.40;76.80;;;;;;5031892;28;20025;-82
2021/06/07 07:32:36;;;;;;;45.53;33.72;;;18.10;76.00;;;;;;5009423;28;20712;-82
2021/06/07 07:35:02;;;;;;;44.83;34.95;;;18.30;76.40;;;;;;5016536;28;20037;-82
2021/06/07 07:37:27;;;;;;;48.33;36.88;;;18.10;77.00;;;;;;5022549;28;20035;-82
2021/06/07 07:39:53;;;;;;;49.55;38.80;;;18.30;77.50;;;;;;5022435;28;20466;-81
2021/06/07 07:42:19;;;;;;;54.45;39.20;;;18.30;76.70;;;;;;5021879;28;20025;-81
2021/06/07 07:44:45;;;;;;;54.67;41.50;;;18.40;77.80;;;;;;4999376;28;20032;-82
2021/06/07 07:47:10;;;;;;;48.47;40.35;;;18.30;77.50;;;;;;5037638;28;20074;-77
2021/06/07 07:49:36;;;;;;;51.60;40.13;;;18.30;77.70;;;;;;5001386;28;20510;-78
2021/06/07 07:52:03;;;;;;;51.05;38.92;;;18.20;77.30;;;;;;5034733;28;20029;-78
2021/06/07 07:54:30;;;;;;;49.95;39.75;;;18.20;78.20;;;;;;5007209;28;20025;-78
2021/06/07 07:56:56;;;;;;;49.90;39.30;;;18.20;78.50;;;;;;4989698;28;20131;-79
2021/06/07 07:59:22;;;;;;;52.15;39.70;;;18.20;77.80;;;;;;4986884;28;20040;-79
2021/06/07 08:01:48;;;;;;;50.78;39.35;;;18.20;78.60;;;;;;5015667;28;20076;-77
2021/06/07 08:04:13;;;;;;;46.65;38.67;;;18.20;77.30;;;;;;5019043;28;20533;-78
2021/06/07 08:06:40;;;;;;;52.67;39.47;;;18.20;77.50;;;;;;5006637;28;20017;-78
2021/06/07 08:09:06;;;;;;;50.33;39.25;;;18.30;77.80;;;;;;5038576;28;20116;-78
2021/06/07 08:11:31;;;;;;;46.63;37.05;;;18.40;76.70;;;;;;5018996;28;20100;-78
2021/06/07 08:13:57;;;;;;;38.25;31.58;;;18.60;76.10;;;;;;5004874;28;20033;-77
2021/06/07 08:16:23;;;;;;;42.10;28.63;;;18.50;75.10;;;;;;5019793;28;20031;-79
2021/06/07 08:18:48;;;;;;;34.13;23.80;;;18.80;75.80;;;;;;5006551;28;20071;-83
2021/06/07 08:21:14;;;;;;;27.50;23.50;;;19.20;71.40;;;;;;5038838;28;20100;-81
2021/06/07 08:23:40;;;;;;;36.35;28.70;;;19.60;71.50;;;;;;5010290;28;20017;-79
2021/06/07 08:26:06;;;;;;;31.73;25.98;;;19.80;69.40;;;;;;5018180;28;20084;-79
2021/06/07 08:28:32;;;;;;;29.02;23.67;;;20.30;68.70;;;;;;5021446;28;20040;-84
2021/06/07 08:30:58;;;;;;;24.33;21.33;;;20.30;68.30;;;;;;5005037;28;20059;-78
2021/06/07 08:33:33;;;;;;;30.67;20.92;;;20.50;67.40;;;;;;5015320;28;20029;-81
2021/06/07 08:35:59;;;;;;;23.85;18.10;;;20.60;68.10;;;;;;5034616;28;20458;-86
2021/06/07 08:38:25;;;;;;;21.23;16.55;;;20.60;66.90;;;;;;5010433;28;20089;-81
2021/06/07 08:40:53;;;;;;;21.77;16.73;;;21.30;65.30;;;;;;5022556;28;20414;-79
2021/06/07 08:43:20;;;;;;;24.55;17.35;;;21.10;63.50;;;;;;5043351;28;20027;-78
2021/06/07 08:45:47;;;;;;;18.35;15.63;;;21.60;64.20;;;;;;5024401;28;20026;-79
2021/06/07 08:48:13;;;;;;;24.63;15.88;;;21.40;64.40;;;;;;5034869;28;20021;-79
2021/06/07 08:50:38;;;;;;;19.42;14.63;;;21.70;63.70;;;;;;5031062;28;20043;-79
2021/06/07 08:53:04;;;;;;;20.27;14.23;;;21.50;63.00;;;;;;5022717;28;20100;-80
2021/06/07 08:55:33;;;;;;;28.42;21.13;;;20.80;65.00;;;;;;5020301;28;20032;-81
2021/06/07 08:57:59;;;;;;;27.27;22.73;;;20.50;68.20;;;;;;5019604;28;20048;-81
2021/06/07 09:00:27;;;;;;;31.50;23.83;;;20.30;68.20;;;;;;5019452;28;20504;-79
2021/06/07 09:03:14;;;;;;;30.58;21.52;;;20.20;69.50;;;;;;5016345;28;20040;-79
2021/06/07 09:05:40;;;;;;;29.90;21.73;;;20.40;68.10;;;;;;5000249;28;20021;-80
2021/06/07 09:08:25;;;;;;;27.30;20.08;;;20.70;68.80;;;;;;5004811;28;20112;-79
2021/06/07 09:10:52;;;;;;;22.75;18.67;;;20.70;71.70;;;;;;5031113;28;20021;-80
2021/06/07 09:13:20;;;;;;;24.65;19.02;;;20.40;67.70;;;;;;4985130;28;20021;-80
2021/06/07 09:15:47;;;;;;;24.73;18.70;;;20.30;68.00;;;;;;5001716;28;20049;-81
2021/06/07 09:18:15;;;;;;;25.15;19.98;;;20.60;66.60;;;;;;5033775;28;20112;-80
2021/06/07 09:20:42;;;;;;;24.02;19.30;;;20.80;66.50;;;;;;5014367;28;20020;-79
2021/06/07 09:23:10;;;;;;;19.75;15.27;;;20.70;66.20;;;;;;5029486;28;20435;-80
2021/06/07 09:25:44;;;;;;;17.20;14.45;;;20.70;65.30;;;;;;5020537;28;20022;-80
2021/06/07 09:28:19;;;;;;;17.98;12.90;;;20.50;65.20;;;;;;5000960;28;20496;-79
2021/06/07 09:30:51;;;;;;;17.30;13.52;;;20.40;65.30;;;;;;5014652;28;20029;-79
2021/06/07 09:33:38;;;;;;;21.88;14.75;;;20.20;67.40;;;;;;5033101;28;20082;-79
2021/06/07 09:36:11;;;;;;;16.55;11.75;;;20.30;66.60;;;;;;5004472;28;20377;-80
2021/06/07 09:38:59;;;;;;;15.63;12.02;;;20.30;65.70;;;;;;5005119;28;20091;-80
2021/06/07 09:41:26;;;;;;;15.90;11.90;;;20.20;66.40;;;;;;5033950;28;20061;-80
2021/06/07 09:43:53;;;;;;;18.75;12.75;;;20.10;66.00;;;;;;5004428;28;20623;-80
2021/06/07 09:46:29;;;;;;;14.38;12.23;;;19.90;66.70;;;;;;5017060;28;20095;-79
2021/06/07 09:49:11;;;;;;;15.52;11.88;;;19.70;67.80;;;;;;5036045;28;20023;-80
2021/06/07 09:51:50;;;;;;;13.85;10.68;;;20.00;68.80;;;;;;5024413;28;20047;-80
2021/06/07 09:54:16;;;;;;;15.43;11.18;;;20.10;67.00;;;;;;5022017;28;20025;-80
2021/06/07 09:56:58;;;;;;;15.30;12.02;;;20.20;66.00;;;;;;5019694;28;20044;-80
2021/06/07 09:59:26;;;;;;;16.00;11.25;;;20.00;66.30;;;;;;4991981;28;20058;-80
2021/06/07 10:01:51;;;;;;;15.05;12.70;;;20.00;66.60;;;;;;5020157;28;20470;-80
2021/06/07 10:04:17;;;;;;;21.10;12.15;;;20.00;66.50;;;;;;5021366;28;20032;-80
2021/06/07 10:06:43;;;;;;;13.48;11.40;;;20.10;65.80;;;;;;5017598;28;20037;-80
2021/06/07 10:09:09;;;;;;;15.00;11.32;;;20.20;66.40;;;;;;5008705;28;20817;-80
2021/06/07 10:11:43;;;;;;;14.50;10.77;;;20.00;66.70;;;;;;5021831;28;20033;-80
2021/06/07 10:14:09;;;;;;;12.45;10.70;;;20.20;68.20;;;;;;5020286;28;20152;-80
2021/06/07 10:16:36;;;;;;;13.90;11.73;;;20.20;68.50;;;;;;5034655;28;20128;-79
2021/06/07 10:19:05;;;;;;;12.95;11.65;;;20.10;66.40;;;;;;5014921;28;20025;-80
2021/06/07 10:21:31;;;;;;;13.02;9.98;;;20.10;65.50;;;;;;5033086;28;20069;-78
2021/06/07 10:23:57;;;;;;;14.65;11.20;;;19.90;67.30;;;;;;5022856;28;20541;-81
2021/06/07 10:26:22;;;;;;;15.77;11.43;;;19.60;66.50;;;;;;5007137;28;20091;-79
2021/06/07 10:28:52;;;;;;;16.90;11.65;;;19.70;68.00;;;;;;5018032;28;20068;-80
2021/06/07 10:31:18;;;;;;;49.35;17.10;;;19.60;67.80;;;;;;4999475;28;20862;-80
2021/06/07 10:33:58;;;;;;;24.48;18.02;;;19.60;71.10;;;;;;5015850;28;20135;-84
2021/06/07 10:36:29;;;;;;;37.25;23.38;;;19.50;68.90;;;;;;5036754;28;20423;-86
2021/06/07 10:39:17;;;;;;;36.42;23.95;;;19.60;69.50;;;;;;5004694;28;20025;-87
2021/06/07 10:42:08;;;;;;;20.55;15.68;;;19.50;70.30;;;;;;5026220;28;20063;-85
2021/06/07 10:44:44;;;;;;;17.75;14.73;;;19.60;68.00;;;;;;5036090;28;20094;-86
2021/06/07 10:47:15;;;;;;;16.33;13.70;;;19.60;69.00;;;;;;5023838;28;20075;-85
2021/06/07 10:49:57;;;;;;;17.00;13.38;;;19.70;66.70;;;;;;5018687;28;20032;-86
2021/06/07 10:52:27;;;;;;;16.52;14.85;;;19.90;66.60;;;;;;5019138;28;20053;-86
2021/06/07 10:55:26;;;;;;;20.45;18.23;;;19.90;66.80;;;;;;5021912;28;20031;-89
2021/06/07 10:57:52;;;;;;;25.08;20.17;;;20.00;68.40;;;;;;4991636;28;20040;-90
2021/06/07 11:00:42;;;;;;;18.95;15.85;;;19.90;67.40;;;;;;5019348;28;20032;-86
2021/06/07 11:03:34;;;;;;;18.35;16.35;;;19.90;65.30;;;;;;5028803;28;20061;-86
2021/06/07 11:06:01;;;;;;;17.65;15.85;;;20.10;66.20;;;;;;5003265;28;20042;-86
2021/06/07 11:08:29;;;;;;;16.00;14.48;;;20.10;64.60;;;;;;4991521;28;20380;-87
2021/06/07 11:11:06;;;;;;;17.73;13.90;;;20.10;64.20;;;;;;5020735;28;20608;-91
2021/06/07 11:13:33;;;;;;;19.63;14.88;;;20.20;64.00;;;;;;5025065;28;20425;-91
2021/06/07 11:16:03;;;;;;;17.83;15.93;;;20.20;63.60;;;;;;5020579;28;20513;-90
2021/06/07 11:18:35;;;;;;;16.00;14.40;;;20.10;64.40;;;;;;4992843;28;20040;-90
2021/06/07 11:21:21;;;;;;;16.52;14.23;;;20.20;65.60;;;;;;5036189;28;20017;-86
2021/06/07 11:23:47;;;;;;;17.10;14.63;;;20.30;64.30;;;;;;5025372;28;20034;-84
2021/06/07 11:26:17;;;;;;;16.25;13.88;;;20.20;65.10;;;;;;5021775;28;20131;-84
2021/06/07 11:28:50;;;;;;;15.65;13.98;;;20.20;63.90;;;;;;5004806;28;20033;-80
2021/06/07 11:31:19;;;;;;;15.55;13.05;;;20.20;64.00;;;;;;5003813;28;20025;-80
2021/06/07 11:33:52;;;;;;;14.63;13.02;;;20.20;64.00;;;;;;5015659;28;20026;-80
2021/06/07 11:36:37;;;;;;;18.17;13.07;;;20.10;64.00;;;;;;4999818;28;20035;-80
2021/06/07 11:39:03;;;;;;;;;;;19.90;64.20;;;;;;5045291;28;20052;-79
2021/06/07 11:41:45;;;;;;;14.00;12.52;;;19.90;64.90;;;;;;5019447;28;19916;-80
2021/06/07 11:44:11;;;;;;;15.30;13.30;;;20.00;65.10;;;;;;5002777;28;20059;-79
2021/06/07 11:46:40;;;;;;;15.02;13.52;;;20.10;65.10;;;;;;5003765;28;20060;-79
2021/06/07 11:49:16;;;;;;;17.70;12.57;;;20.10;65.50;;;;;;5030423;28;20144;-79
2021/06/07 11:51:43;;;;;;;12.70;11.43;;;20.10;65.40;;;;;;5020491;28;20013;-80
2021/06/07 11:54:27;;;;;;;15.40;11.32;;;20.00;64.70;;;;;;5014182;28;20022;-80
2021/06/07 11:56:59;;;;;;;12.87;11.50;;;19.90;65.30;;;;;;5032028;28;20462;-80
2021/06/07 12:07:21;;;;;;;13.23;11.30;;;20.70;65.70;;;;;;5082045;27;20951;-77
2021/06/07 12:09:49;;;;;;;17.13;11.55;;;20.00;65.20;;;;;;5070369;28;20185;-77
2021/06/07 12:12:15;;;;;;;13.23;11.48;;;19.90;64.20;;;;;;5058315;28;20099;-77
2021/06/07 12:14:42;;;;;;;14.52;11.27;;;19.90;64.40;;;;;;5056850;28;20866;-76
2021/06/07 12:17:09;;;;;;;12.07;10.23;;;19.80;64.10;;;;;;5057855;28;20021;-76
2021/06/07 12:19:42;;;;;;;16.10;10.63;;;19.90;64.50;;;;;;5059630;28;20206;-77
2021/06/07 12:22:31;;;;;;;15.27;10.73;;;19.80;64.80;;;;;;5074611;28;20043;-76
2021/06/07 12:30:37;;;;;;;11.15;10.05;;;20.00;64.70;;;;;;5071269;28;20047;-77
2021/06/07 12:33:03;;;;;;;13.68;10.80;;;20.10;64.00;;;;;;5055828;28;20024;-76
2021/06/07 12:35:31;;;;;;;12.57;10.77;;;20.00;64.00;;;;;;5053756;28;20041;-77
2021/06/07 12:38:04;;;;;;;13.95;10.63;;;19.90;63.50;;;;;;5053367;28;20269;-75
2021/06/07 12:40:34;;;;;;;12.40;10.98;;;19.90;64.00;;;;;;5055673;28;20113;-76
2021/06/07 12:43:06;;;;;;;13.85;12.43;;;20.10;64.00;;;;;;5054925;28;20050;-77
2021/06/07 12:45:36;;;;;;;12.65;11.32;;;20.20;63.50;;;;;;5064884;28;20111;-75
2021/06/07 12:48:19;;;;;;;13.85;11.70;;;20.10;65.00;;;;;;5066561;28;20027;-75